Grundy, Virginia
Current Conditions -  °F | °C
As of 8:55 PM on Wednesday 22 Oct 2014 (Local Time) from KJFZ Reporting Station
Haze Haze  
Wind Chill:   Ceiling: 300
Heat Index:   Visibility: 3mi
Dew Point:   Wind: 6mph
Humidity: 93%   Direction: 330°NNW
Pressure: 30.19"   Gusts: NA
Location:  37.28°N, 82.1°W
Report Text: KJFZ 230055Z AUTO 33005KT 3SM BR OVC003 07/06 A3019 RMK AO2 T00700060
Loading
Personal Weather Stations






























Interactive Weather Map
Tropical Storm Tracking
New forecast layout! Learn more

10-Day Weather Forecast

Advertisements
Track Severe Weather on mobile